sensor_id;sensor_type;location;lat;lon;timestamp;pressure;altitude;pressure_sealevel;temperature;humidity
7052;BME280;3567;52.444;13.556;2023-12-20T00:00:25;100523.88;;;5.83;100.00
7052;BME280;3567;52.444;13.556;2023-12-20T00:02:50;100528.38;;;5.82;100.00
7052;BME280;3567;52.444;13.556;2023-12-20T00:05:16;100527.75;;;5.80;100.00
7052;BME280;3567;52.444;13.556;2023-12-20T00:07:41;100517.94;;;5.81;100.00
7052;BME280;3567;52.444;13.556;2023-12-20T00:10:07;100512.63;;;5.81;100.00
7052;BME280;3567;52.444;13.556;2023-12-20T00:12:33;100510.97;;;5.79;100.00
7052;BME280;3567;52.444;13.556;2023-12-20T00:14:58;100509.34;;;5.78;100.00
7052;BME280;3567;52.444;13.556;2023-12-20T00:17:23;100514.66;;;5.78;100.00
7052;BME280;3567;52.444;13.556;2023-12-20T00:19:52;100510.97;;;5.79;100.00
7052;BME280;3567;52.444;13.556;2023-12-20T00:22:17;100509.13;;;5.80;100.00
7052;BME280;3567;52.444;13.556;2023-12-20T00:24:42;100509.13;;;5.80;100.00
7052;BME280;3567;52.444;13.556;2023-12-20T00:27:08;100499.53;;;5.79;100.00
7052;BME280;3567;52.444;13.556;2023-12-20T00:29:33;100502.00;;;5.81;100.00
7052;BME280;3567;52.444;13.556;2023-12-20T00:31:58;100498.72;;;5.78;100.00
7052;BME280;3567;52.444;13.556;2023-12-20T00:34:24;100507.50;;;5.79;100.00
7052;BME280;3567;52.444;13.556;2023-12-20T00:36:49;100493.59;;;5.77;100.00
7052;BME280;3567;52.444;13.556;2023-12-20T00:39:14;100495.03;;;5.79;100.00
7052;BME280;3567;52.444;13.556;2023-12-20T00:41:40;100491.75;;;5.77;100.00
7052;BME280;3567;52.444;13.556;2023-12-20T00:44:05;100494.44;;;5.77;100.00
7052;BME280;3567;52.444;13.556;2023-12-20T00:46:30;100491.75;;;5.77;100.00
7052;BME280;3567;52.444;13.556;2023-12-20T00:48:59;100496.25;;;5.77;100.00
7052;BME280;3567;52.444;13.556;2023-12-20T00:51:24;100490.13;;;5.76;100.00
7052;BME280;3567;52.444;13.556;2023-12-20T00:53:50;100487.47;;;5.76;100.00
7052;BME280;3567;52.444;13.556;2023-12-20T00:56:19;100485.63;;;5.77;100.00
7052;BME280;3567;52.444;13.556;2023-12-20T00:58:45;100485.22;;;5.73;100.00
7052;BME280;3567;52.444;13.556;2023-12-20T01:01:10;100486.84;;;5.74;100.00
7052;BME280;3567;52.444;13.556;2023-12-20T01:03:36;100487.88;;;5.73;100.00
7052;BME280;3567;52.444;13.556;2023-12-20T01:06:01;100486.03;;;5.74;100.00
7052;BME280;3567;52.444;13.556;2023-12-20T01:08:26;100490.53;;;5.73;100.00
7052;BME280;3567;52.444;13.556;2023-12-20T01:10:52;100493.41;;;5.72;100.00
7052;BME280;3567;52.444;13.556;2023-12-20T01:13:18;100496.25;;;5.70;100.00
7052;BME280;3567;52.444;13.556;2023-12-20T01:15:44;100501.16;;;5.73;100.00
7052;BME280;3567;52.444;13.556;2023-12-20T01:18:09;100488.91;;;5.72;100.00
7052;BME280;3567;52.444;13.556;2023-12-20T01:20:35;100487.88;;;5.73;100.00
7052;BME280;3567;52.444;13.556;2023-12-20T01:23:01;100485.22;;;5.73;100.00
7052;BME280;3567;52.444;13.556;2023-12-20T01:25:26;100485.22;;;5.73;100.00
7052;BME280;3567;52.444;13.556;2023-12-20T01:27:52;100493.41;;;5.72;100.00
7052;BME280;3567;52.444;13.556;2023-12-20T01:30:17;100488.09;;;5.72;100.00
7052;BME280;3567;52.444;13.556;2023-12-20T01:32:43;100485.41;;;5.72;100.00
7052;BME280;3567;52.444;13.556;2023-12-20T01:35:11;100484.78;;;5.70;100.00
7052;BME280;3567;52.444;13.556;2023-12-20T01:37:38;100490.94;;;5.70;100.00
7052;BME280;3567;52.444;13.556;2023-12-20T01:40:09;100494.59;;;5.69;100.00
7052;BME280;3567;52.444;13.556;2023-12-20T01:42:34;100489.72;;;5.73;100.00
7052;BME280;3567;52.444;13.556;2023-12-20T01:45:00;100485.22;;;5.73;100.00
7052;BME280;3567;52.444;13.556;2023-12-20T01:47:25;100485.22;;;5.73;100.00
7052;BME280;3567;52.444;13.556;2023-12-20T01:49:52;100478.88;;;5.74;100.00
7052;BME280;3567;52.444;13.556;2023-12-20T01:52:19;100478.88;;;5.74;100.00
7052;BME280;3567;52.444;13.556;2023-12-20T01:54:45;100476.84;;;5.76;100.00
7052;BME280;3567;52.444;13.556;2023-12-20T01:57:12;100487.47;;;5.76;100.00
7052;BME280;3567;52.444;13.556;2023-12-20T01:59:39;100485.84;;;5.75;100.00
7052;BME280;3567;52.444;13.556;2023-12-20T02:02:05;100474.38;;;5.75;100.00
7052;BME280;3567;52.444;13.556;2023-12-20T02:04:30;100468.88;;;5.76;100.00
7052;BME280;3567;52.444;13.556;2023-12-20T02:06:57;100467.63;;;5.79;100.00
7052;BME280;3567;52.444;13.556;2023-12-20T02:09:24;100474.56;;;5.80;100.00
7052;BME280;3567;52.444;13.556;2023-12-20T02:11:49;100467.44;;;5.81;100.00
7052;BME280;3567;52.444;13.556;2023-12-20T02:14:14;100464.78;;;5.81;100.00
7052;BME280;3567;52.444;13.556;2023-12-20T02:16:40;100456.19;;;5.78;100.00
7052;BME280;3567;52.444;13.556;2023-12-20T02:19:13;100449.66;;;5.81;100.00
7052;BME280;3567;52.444;13.556;2023-12-20T02:21:39;100470.72;;;5.83;100.00
7052;BME280;3567;52.444;13.556;2023-12-20T02:24:05;100465.41;;;5.83;100.00
7052;BME280;3567;52.444;13.556;2023-12-20T02:26:32;100460.28;;;5.81;100.00
7052;BME280;3567;52.444;13.556;2023-12-20T02:29:01;100469.47;;;5.85;100.00
7052;BME280;3567;52.444;13.556;2023-12-20T02:31:27;100459.88;;;5.84;100.00
7052;BME280;3567;52.444;13.556;2023-12-20T02:33:55;100456.41;;;5.84;100.00
7052;BME280;3567;52.444;13.556;2023-12-20T02:36:21;100464.97;;;5.86;100.00
7052;BME280;3567;52.444;13.556;2023-12-20T02:38:49;100463.97;;;5.87;100.00
7052;BME280;3567;52.444;13.556;2023-12-20T02:41:15;100460.28;;;5.88;100.00
7052;BME280;3567;52.444;13.556;2023-12-20T02:43:43;100454.53;;;5.91;100.00
7052;BME280;3567;52.444;13.556;2023-12-20T02:46:09;100459.88;;;5.91;100.00
7052;BME280;3567;52.444;13.556;2023-12-20T02:48:34;100451.88;;;5.91;100.00
7052;BME280;3567;52.444;13.556;2023-12-20T02:50:59;100447.22;;;5.93;100.00
7052;BME280;3567;52.444;13.556;2023-12-20T02:53:27;100442.50;;;5.95;100.00
7052;BME280;3567;52.444;13.556;2023-12-20T02:55:53;100453.78;;;5.97;100.00
7052;BME280;3567;52.444;13.556;2023-12-20T02:58:18;100462.34;;;5.99;100.00
7052;BME280;3567;52.444;13.556;2023-12-20T03:00:43;100464.00;;;6.00;100.00
7052;BME280;3567;52.444;13.556;2023-12-20T03:03:09;100461.31;;;6.00;100.00
7052;BME280;3567;52.444;13.556;2023-12-20T03:05:34;100454.97;;;6.01;100.00
7052;BME280;3567;52.444;13.556;2023-12-20T03:08:00;100451.31;;;6.02;100.00
7052;BME280;3567;52.444;13.556;2023-12-20T03:10:28;100454.59;;;6.04;100.00
7052;BME280;3567;52.444;13.556;2023-12-20T03:12:53;100457.03;;;6.06;100.00
7052;BME280;3567;52.444;13.556;2023-12-20T03:15:18;100464.19;;;6.05;100.00
7052;BME280;3567;52.444;13.556;2023-12-20T03:17:44;100469.28;;;6.07;100.00
7052;BME280;3567;52.444;13.556;2023-12-20T03:20:15;100461.53;;;6.05;100.00
7052;BME280;3567;52.444;13.556;2023-12-20T03:22:41;100463.38;;;6.04;100.00
7052;BME280;3567;52.444;13.556;2023-12-20T03:25:06;100468.91;;;6.03;100.00
7052;BME280;3567;52.444;13.556;2023-12-20T03:27:32;100469.09;;;6.01;100.00
7052;BME280;3567;52.444;13.556;2023-12-20T03:30:00;100464.00;;;6.00;100.00
7052;BME280;3567;52.444;13.556;2023-12-20T03:32:26;100467.88;;;5.97;100.00
7052;BME280;3567;52.444;13.556;2023-12-20T03:34:54;100471.53;;;5.96;100.00
7052;BME280;3567;52.444;13.556;2023-12-20T03:37:19;100477.06;;;5.95;100.00
7052;BME280;3567;52.444;13.556;2023-12-20T03:39:45;100466.06;;;5.91;100.00
7052;BME280;3567;52.444;13.556;2023-12-20T03:42:10;100470.91;;;5.88;100.00
7052;BME280;3567;52.444;13.556;2023-12-20T03:44:38;100479.09;;;5.86;100.00
7052;BME280;3567;52.444;13.556;2023-12-20T03:47:06;100472.94;;;5.86;100.00
7052;BME280;3567;52.444;13.556;2023-12-20T03:49:34;100474.78;;;5.85;100.00
7052;BME280;3567;52.444;13.556;2023-12-20T03:52:02;100474.78;;;5.85;100.00
7052;BME280;3567;52.444;13.556;2023-12-20T03:54:28;100476.44;;;5.86;100.00
7052;BME280;3567;52.444;13.556;2023-12-20T03:56:53;100467.63;;;5.86;100.00
7052;BME280;3567;52.444;13.556;2023-12-20T03:59:19;100464.38;;;5.84;100.00
7052;BME280;3567;52.444;13.556;2023-12-20T04:01:45;100450.88;;;5.85;100.00
7052;BME280;3567;52.444;13.556;2023-12-20T04:04:11;100445.75;;;5.84;100.00
7052;BME280;3567;52.444;13.556;2023-12-20T04:06:37;100441.47;;;5.83;100.00
7052;BME280;3567;52.444;13.556;2023-12-20T04:09:02;100446.78;;;5.83;100.00
7052;BME280;3567;52.444;13.556;2023-12-20T04:11:28;100454.16;;;5.81;100.00
7052;BME280;3567;52.444;13.556;2023-12-20T04:13:55;100446.78;;;5.76;100.00
7052;BME280;3567;52.444;13.556;2023-12-20T04:16:21;100440.66;;;5.75;100.00
7052;BME280;3567;52.444;13.556;2023-12-20T04:18:46;100445.13;;;5.75;100.00
7052;BME280;3567;52.444;13.556;2023-12-20T04:21:12;100425.13;;;5.72;100.00
7052;BME280;3567;52.444;13.556;2023-12-20T04:23:40;100435.75;;;5.72;100.00
7052;BME280;3567;52.444;13.556;2023-12-20T04:26:05;100435.75;;;5.72;100.00
7052;BME280;3567;52.444;13.556;2023-12-20T04:28:31;100438.41;;;5.72;100.00
7052;BME280;3567;52.444;13.556;2023-12-20T04:30:56;100433.91;;;5.73;100.00
7052;BME280;3567;52.444;13.556;2023-12-20T04:33:22;100431.25;;;5.73;100.00
7052;BME280;3567;52.444;13.556;2023-12-20T04:35:47;100438.19;;;5.74;100.00
7052;BME280;3567;52.444;13.556;2023-12-20T04:38:13;100442.28;;;5.70;100.00
7052;BME280;3567;52.444;13.556;2023-12-20T04:40:38;100443.50;;;5.67;100.00
7052;BME280;3567;52.444;13.556;2023-12-20T04:43:06;100440.25;;;5.65;100.00
7052;BME280;3567;52.444;13.556;2023-12-20T04:45:31;100431.25;;;5.60;100.00
7052;BME280;3567;52.444;13.556;2023-12-20T04:47:56;100423.88;;;5.55;100.00
7052;BME280;3567;52.444;13.556;2023-12-20T04:50:22;100428.19;;;5.49;100.00
7052;BME280;3567;52.444;13.556;2023-12-20T04:52:47;100427.97;;;5.44;100.00
7052;BME280;3567;52.444;13.556;2023-12-20T04:55:13;100432.84;;;5.41;100.00
7052;BME280;3567;52.444;13.556;2023-12-20T04:57:38;100437.94;;;5.36;100.00
7052;BME280;3567;52.444;13.556;2023-12-20T05:00:05;100429.16;;;5.35;100.00
7052;BME280;3567;52.444;13.556;2023-12-20T05:02:31;100426.28;;;5.37;100.00
7052;BME280;3567;52.444;13.556;2023-12-20T05:04:56;100435.72;;;5.39;100.00
7052;BME280;3567;52.444;13.556;2023-12-20T05:07:22;100431.59;;;5.37;100.00
7052;BME280;3567;52.444;13.556;2023-12-20T05:09:47;100422.44;;;5.33;100.00
7052;BME280;3567;52.444;13.556;2023-12-20T05:12:12;100437.72;;;5.31;100.00
7052;BME280;3567;52.444;13.556;2023-12-20T05:14:38;100443.03;;;5.31;100.00
7052;BME280;3567;52.444;13.556;2023-12-20T05:17:03;100435.06;;;5.31;100.00
7052;BME280;3567;52.444;13.556;2023-12-20T05:19:29;100440.59;;;5.29;100.00
7052;BME280;3567;52.444;13.556;2023-12-20T05:21:54;100438.16;;;5.28;100.00
7052;BME280;3567;52.444;13.556;2023-12-20T05:24:20;100442.22;;;5.23;100.00
7052;BME280;3567;52.444;13.556;2023-12-20T05:26:48;100435.44;;;5.21;100.00
7052;BME280;3567;52.444;13.556;2023-12-20T05:29:14;100436.06;;;5.16;100.00
7052;BME280;3567;52.444;13.556;2023-12-20T05:31:39;100444.88;;;5.17;100.00
7052;BME280;3567;52.444;13.556;2023-12-20T05:34:04;100453.00;;;5.15;100.00
7052;BME280;3567;52.444;13.556;2023-12-20T05:36:30;100445.84;;;5.16;100.00
7052;BME280;3567;52.444;13.556;2023-12-20T05:38:55;100446.44;;;5.11;100.00
7052;BME280;3567;52.444;13.556;2023-12-20T05:41:20;100453.00;;;5.09;100.00
7052;BME280;3567;52.444;13.556;2023-12-20T05:43:46;100449.91;;;5.05;100.00
7052;BME280;3567;52.444;13.556;2023-12-20T05:46:12;100442.59;;;5.07;100.00
7052;BME280;3567;52.444;13.556;2023-12-20T05:48:40;100442.16;;;5.04;100.00
7052;BME280;3567;52.444;13.556;2023-12-20T05:51:05;100441.13;;;4.98;100.00
7052;BME280;3567;52.444;13.556;2023-12-20T05:53:31;100442.72;;;4.92;100.00
7052;BME280;3567;52.444;13.556;2023-12-20T05:55:56;100445.16;;;4.87;100.00
7052;BME280;3567;52.444;13.556;2023-12-20T05:58:21;100435.94;;;4.83;100.00
7052;BME280;3567;52.444;13.556;2023-12-20T06:00:47;100429.00;;;4.76;100.00
7052;BME280;3567;52.444;13.556;2023-12-20T06:03:14;100433.88;;;4.72;100.00
7052;BME280;3567;52.444;13.556;2023-12-20T06:05:39;100435.47;;;4.66;100.00
7052;BME280;3567;52.444;13.556;2023-12-20T06:08:05;100419.31;;;4.61;100.00
7052;BME280;3567;52.444;13.556;2023-12-20T06:10:30;100422.41;;;4.58;100.00
7052;BME280;3567;52.444;13.556;2023-12-20T06:12:56;100426.44;;;4.54;100.00
7052;BME280;3567;52.444;13.556;2023-12-20T06:15:22;100412.94;;;4.49;100.00
7052;BME280;3567;52.444;13.556;2023-12-20T06:17:48;100407.41;;;4.44;100.00
7052;BME280;3567;52.444;13.556;2023-12-20T06:20:16;100403.50;;;4.40;100.00
7052;BME280;3567;52.444;13.556;2023-12-20T06:22:41;100408.00;;;4.39;100.00
7052;BME280;3567;52.444;13.556;2023-12-20T06:25:12;100410.84;;;4.38;100.00
7052;BME280;3567;52.444;13.556;2023-12-20T06:27:38;100414.91;;;4.34;100.00
7052;BME280;3567;52.444;13.556;2023-12-20T06:30:04;100418.97;;;4.36;100.00
7052;BME280;3567;52.444;13.556;2023-12-20T06:32:29;100421.03;;;4.34;100.00
7052;BME280;3567;52.444;13.556;2023-12-20T06:34:55;100415.72;;;4.34;100.00
7052;BME280;3567;52.444;13.556;2023-12-20T06:37:21;100421.84;;;4.35;100.00
7052;BME280;3567;52.444;13.556;2023-12-20T06:39:46;100419.84;;;4.37;100.00
7052;BME280;3567;52.444;13.556;2023-12-20T06:42:14;100417.34;;;4.35;100.00
7052;BME280;3567;52.444;13.556;2023-12-20T06:44:41;100425.50;;;4.34;100.00
7052;BME280;3567;52.444;13.556;2023-12-20T06:47:09;100424.50;;;4.35;100.00
7052;BME280;3567;52.444;13.556;2023-12-20T06:49:34;100430.81;;;4.34;100.00
7052;BME280;3567;52.444;13.556;2023-12-20T06:52:00;100429.19;;;4.33;100.00
7052;BME280;3567;52.444;13.556;2023-12-20T06:54:28;100428.16;;;4.34;100.00
7052;BME280;3567;52.444;13.556;2023-12-20T06:56:53;100423.88;;;4.33;100.00
7052;BME280;3567;52.444;13.556;2023-12-20T06:59:19;100409.81;;;4.32;100.00
7052;BME280;3567;52.444;13.556;2023-12-20T07:01:48;100415.28;;;4.31;100.00
7052;BME280;3567;52.444;13.556;2023-12-20T07:04:13;100417.56;;;4.34;100.00
7052;BME280;3567;52.444;13.556;2023-12-20T07:06:38;100420.22;;;4.34;100.00
7052;BME280;3567;52.444;13.556;2023-12-20T07:09:04;100422.03;;;4.33;100.00
7052;BME280;3567;52.444;13.556;2023-12-20T07:11:29;100426.78;;;4.38;100.00
7052;BME280;3567;52.444;13.556;2023-12-20T07:13:54;100410.84;;;4.38;100.00
7052;BME280;3567;52.444;13.556;2023-12-20T07:16:21;100420.88;;;4.42;100.00
7052;BME280;3567;52.444;13.556;2023-12-20T07:18:47;100409.25;;;4.43;100.00
7052;BME280;3567;52.444;13.556;2023-12-20T07:21:13;100416.63;;;4.48;100.00
7052;BME280;3567;52.444;13.556;2023-12-20T07:23:38;100404.78;;;4.51;100.00
7052;BME280;3567;52.444;13.556;2023-12-20T07:26:03;100407.25;;;4.52;100.00
7052;BME280;3567;52.444;13.556;2023-12-20T07:28:29;100407.88;;;4.54;100.00
7052;BME280;3567;52.444;13.556;2023-12-20T07:30:55;100411.78;;;4.58;100.00
7052;BME280;3567;52.444;13.556;2023-12-20T07:33:20;100412.38;;;4.60;100.00
7052;BME280;3567;52.444;13.556;2023-12-20T07:35:45;100416.06;;;4.59;100.00
7052;BME280;3567;52.444;13.556;2023-12-20T07:38:11;100414.84;;;4.62;100.00
7052;BME280;3567;52.444;13.556;2023-12-20T07:40:37;100418.31;;;4.62;100.00
7052;BME280;3567;52.444;13.556;2023-12-20T07:43:03;100414.63;;;4.63;100.00
7052;BME280;3567;52.444;13.556;2023-12-20T07:45:28;100410.16;;;4.64;100.00
7052;BME280;3567;52.444;13.556;2023-12-20T07:47:54;100410.16;;;4.64;100.00
7052;BME280;3567;52.444;13.556;2023-12-20T07:50:19;100402.81;;;4.66;100.00
7052;BME280;3567;52.444;13.556;2023-12-20T07:52:48;100405.28;;;4.67;100.00
7052;BME280;3567;52.444;13.556;2023-12-20T07:55:16;100408.13;;;4.66;100.00
7052;BME280;3567;52.444;13.556;2023-12-20T07:57:41;100410.56;;;4.67;100.00
7052;BME280;3567;52.444;13.556;2023-12-20T08:00:07;100408.16;;;4.72;100.00
7052;BME280;3567;52.444;13.556;2023-12-20T08:02:32;100404.88;;;4.70;100.00
7052;BME280;3567;52.444;13.556;2023-12-20T08:04:58;100401.59;;;4.68;100.00
7052;BME280;3567;52.444;13.556;2023-12-20T08:07:23;100410.19;;;4.70;100.00
7052;BME280;3567;52.444;13.556;2023-12-20T08:09:51;100399.81;;;4.76;100.00
7052;BME280;3567;52.444;13.556;2023-12-20T08:12:20;100405.13;;;4.76;100.00
7052;BME280;3567;52.444;13.556;2023-12-20T08:14:45;100408.59;;;4.76;100.00
7052;BME280;3567;52.444;13.556;2023-12-20T08:17:11;100415.94;;;4.81;100.00
7052;BME280;3567;52.444;13.556;2023-12-20T08:19:37;100411.47;;;4.81;100.00
7052;BME280;3567;52.444;13.556;2023-12-20T08:22:03;100406.97;;;4.82;100.00
7052;BME280;3567;52.444;13.556;2023-12-20T08:24:29;100414.72;;;4.83;100.00
7052;BME280;3567;52.444;13.556;2023-12-20T08:26:55;100407.56;;;4.84;100.00
7052;BME280;3567;52.444;13.556;2023-12-20T08:29:20;100403.28;;;4.83;100.00
7052;BME280;3567;52.444;13.556;2023-12-20T08:31:46;100401.28;;;4.85;100.00
7052;BME280;3567;52.444;13.556;2023-12-20T08:34:11;100407.41;;;4.85;100.00
7052;BME280;3567;52.444;13.556;2023-12-20T08:36:39;100406.59;;;4.85;100.00
7052;BME280;3567;52.444;13.556;2023-12-20T08:39:05;100395.56;;;4.88;100.00
7052;BME280;3567;52.444;13.556;2023-12-20T08:41:32;100410.44;;;4.89;100.00
7052;BME280;3567;52.444;13.556;2023-12-20T08:43:58;100404.75;;;4.92;100.00
7052;BME280;3567;52.444;13.556;2023-12-20T08:46:23;100403.13;;;4.91;100.00
7052;BME280;3567;52.444;13.556;2023-12-20T08:48:50;100400.84;;;4.88;100.00
7052;BME280;3567;52.444;13.556;2023-12-20T08:51:15;100400.88;;;4.94;100.00
7052;BME280;3567;52.444;13.556;2023-12-20T08:53:40;100399.88;;;5.02;100.00
7052;BME280;3567;52.444;13.556;2023-12-20T08:56:06;100394.78;;;5.07;100.00
7052;BME280;3567;52.444;13.556;2023-12-20T08:58:33;100399.69;;;5.10;100.00
7052;BME280;3567;52.444;13.556;2023-12-20T09:00:58;100400.53;;;5.17;100.00
7052;BME280;3567;52.444;13.556;2023-12-20T09:03:24;100399.31;;;5.13;100.00
7052;BME280;3567;52.444;13.556;2023-12-20T09:05:49;100390.91;;;5.16;100.00
7052;BME280;3567;52.444;13.556;2023-12-20T09:08:14;100395.63;;;5.21;100.00
7052;BME280;3567;52.444;13.556;2023-12-20T09:10:40;100396.06;;;5.24;100.00
7052;BME280;3567;52.444;13.556;2023-12-20T09:13:05;100397.69;;;5.25;100.00
7052;BME280;3567;52.444;13.556;2023-12-20T09:15:31;100406.28;;;5.28;100.00
7052;BME280;3567;52.444;13.556;2023-12-20T09:17:56;100400.56;;;5.31;100.00
7052;BME280;3567;52.444;13.556;2023-12-20T09:20:21;100409.34;;;5.38;100.00
7052;BME280;3567;52.444;13.556;2023-12-20T09:22:48;100399.34;;;5.40;100.00
7052;BME280;3567;52.444;13.556;2023-12-20T09:25:14;100393.81;;;5.41;100.00
7052;BME280;3567;52.444;13.556;2023-12-20T09:27:41;100385.47;;;5.44;100.00
7052;BME280;3567;52.444;13.556;2023-12-20T09:30:06;100387.28;;;5.37;100.00
7052;BME280;3567;52.444;13.556;2023-12-20T09:32:32;100380.13;;;5.38;100.00
7052;BME280;3567;52.444;13.556;2023-12-20T09:35:05;100391.59;;;5.45;100.00
7052;BME280;3567;52.444;13.556;2023-12-20T09:37:31;100379.72;;;5.47;100.00
7052;BME280;3567;52.444;13.556;2023-12-20T09:39:57;100375.22;;;5.41;100.00
7052;BME280;3567;52.444;13.556;2023-12-20T09:45:25;100383.84;;;5.43;100.00
7052;BME280;3567;52.444;13.556;2023-12-20T09:47:53;100379.94;;;5.46;100.00
7052;BME280;3567;52.444;13.556;2023-12-20T09:50:20;100384.66;;;5.44;100.00
7052;BME280;3567;52.444;13.556;2023-12-20T09:52:49;100379.53;;;5.49;100.00
7052;BME280;3567;52.444;13.556;2023-12-20T09:55:17;100366.03;;;5.50;100.00
7052;BME280;3567;52.444;13.556;2023-12-20T09:57:42;100370.31;;;5.51;100.00
7052;BME280;3567;52.444;13.556;2023-12-20T10:00:08;100362.34;;;5.51;100.00
7052;BME280;3567;52.444;13.556;2023-12-20T10:02:35;100369.13;;;5.54;100.00
7052;BME280;3567;52.444;13.556;2023-12-20T10:05:06;100359.09;;;5.56;100.00
7052;BME280;3567;52.444;13.556;2023-12-20T10:07:34;100346.00;;;5.61;100.00
7052;BME280;3567;52.444;13.556;2023-12-20T10:10:01;100339.28;;;5.65;100.00
7052;BME280;3567;52.444;13.556;2023-12-20T10:12:27;100343.56;;;5.66;100.00
7052;BME280;3567;52.444;13.556;2023-12-20T10:14:52;100335.16;;;5.69;100.00
7052;BME280;3567;52.444;13.556;2023-12-20T10:17:18;100324.72;;;5.74;100.00
7052;BME280;3567;52.444;13.556;2023-12-20T10:19:43;100323.50;;;5.77;100.00
7052;BME280;3567;52.444;13.556;2023-12-20T10:22:10;100319.00;;;5.77;100.00
7052;BME280;3567;52.444;13.556;2023-12-20T10:24:35;100306.31;;;5.79;100.00
7052;BME280;3567;52.444;13.556;2023-12-20T10:27:05;100313.06;;;5.82;100.00
7052;BME280;3567;52.444;13.556;2023-12-20T10:29:32;100306.50;;;5.85;100.00
7052;BME280;3567;52.444;13.556;2023-12-20T10:31:58;100314.31;;;5.86;100.00
7052;BME280;3567;52.444;13.556;2023-12-20T10:34:23;100306.09;;;5.88;100.00
7052;BME280;3567;52.444;13.556;2023-12-20T10:36:49;100300.78;;;5.88;100.00
7052;BME280;3567;52.444;13.556;2023-12-20T10:39:15;100297.31;;;5.87;100.00
7052;BME280;3567;52.444;13.556;2023-12-20T10:41:41;100289.94;;;5.89;100.00
7052;BME280;3567;52.444;13.556;2023-12-20T10:44:08;100292.81;;;5.88;100.00
7052;BME280;3567;52.444;13.556;2023-12-20T10:46:37;100294.66;;;5.94;100.00
7052;BME280;3567;52.444;13.556;2023-12-20T10:49:05;100274.22;;;5.94;100.00
7052;BME280;3567;52.444;13.556;2023-12-20T10:51:34;100269.50;;;5.96;100.00
7052;BME280;3567;52.444;13.556;2023-12-20T10:54:00;100262.56;;;6.02;100.00
7052;BME280;3567;52.444;13.556;2023-12-20T10:56:32;100271.06;;;6.17;100.00
7052;BME280;3567;52.444;13.556;2023-12-20T10:58:59;100272.69;;;6.25;100.00
7052;BME280;3567;52.444;13.556;2023-12-20T11:01:28;100262.59;;;6.34;100.00
7052;BME280;3567;52.444;13.556;2023-12-20T11:03:55;100263.81;;;6.38;100.00
7052;BME280;3567;52.444;13.556;2023-12-20T11:06:25;100251.13;;;6.40;100.00
7052;BME280;3567;52.444;13.556;2023-12-20T11:09:10;100248.28;;;6.35;100.00
7052;BME280;3567;52.444;13.556;2023-12-20T11:14:20;100250.78;;;6.23;100.00
7052;BME280;3567;52.444;13.556;2023-12-20T11:16:47;100243.47;;;6.18;100.00
7052;BME280;3567;52.444;13.556;2023-12-20T11:19:13;100241.78;;;6.24;100.00
7052;BME280;3567;52.444;13.556;2023-12-20T11:21:41;100237.28;;;6.24;100.00
7052;BME280;3567;52.444;13.556;2023-12-20T11:24:06;100220.53;;;6.24;100.00
7052;BME280;3567;52.444;13.556;2023-12-20T11:26:32;100219.34;;;6.13;100.00
7052;BME280;3567;52.444;13.556;2023-12-20T11:29:35;100216.47;;;6.15;100.00
7052;BME280;3567;52.444;13.556;2023-12-20T11:32:27;100213.59;;;6.16;100.00
7052;BME280;3567;52.444;13.556;2023-12-20T11:34:47;100203.81;;;6.10;100.00
7052;BME280;3567;52.444;13.556;2023-12-20T11:37:13;100196.84;;;6.09;100.00
7052;BME280;3567;52.444;13.556;2023-12-20T11:39:38;100203.00;;;6.10;100.00
7052;BME280;3567;52.444;13.556;2023-12-20T11:42:07;100194.84;;;6.04;100.00
7052;BME280;3567;52.444;13.556;2023-12-20T11:44:33;100191.34;;;6.04;100.00
7052;BME280;3567;52.444;13.556;2023-12-20T11:46:58;100183.38;;;6.04;100.00
7052;BME280;3567;52.444;13.556;2023-12-20T11:49:24;100175.22;;;5.99;100.00
7052;BME280;3567;52.444;13.556;2023-12-20T11:51:50;100167.06;;;5.94;100.00
7052;BME280;3567;52.444;13.556;2023-12-20T11:54:16;100161.75;;;5.94;100.00
7052;BME280;3567;52.444;13.556;2023-12-20T11:56:41;100168.28;;;5.98;100.00
7052;BME280;3567;52.444;13.556;2023-12-20T11:59:09;100168.88;;;6.00;100.00
7052;BME280;3567;52.444;13.556;2023-12-20T12:01:36;100170.94;;;5.98;100.00
7052;BME280;3567;52.444;13.556;2023-12-20T12:04:06;100162.53;;;6.01;100.00
7052;BME280;3567;52.444;13.556;2023-12-20T12:06:32;100155.00;;;5.98;100.00
7052;BME280;3567;52.444;13.556;2023-12-20T12:08:57;100151.72;;;5.96;100.00
7052;BME280;3567;52.444;13.556;2023-12-20T12:11:23;100139.66;;;5.93;100.00
7052;BME280;3567;52.444;13.556;2023-12-20T12:13:49;100129.84;;;5.94;100.00
7052;BME280;3567;52.444;13.556;2023-12-20T12:16:18;100124.53;;;5.94;100.00
7052;BME280;3567;52.444;13.556;2023-12-20T12:18:46;100122.94;;;5.86;100.00
7052;BME280;3567;52.444;13.556;2023-12-20T12:21:19;100119.22;;;5.94;100.00
7052;BME280;3567;52.444;13.556;2023-12-20T12:23:45;100105.50;;;5.97;100.00
7052;BME280;3567;52.444;13.556;2023-12-20T12:26:11;100100.78;;;5.99;100.00
7052;BME280;3567;52.444;13.556;2023-12-20T12:28:37;100093.84;;;5.98;100.00
7052;BME280;3567;52.444;13.556;2023-12-20T12:31:04;100078.47;;;6.00;100.00
7052;BME280;3567;52.444;13.556;2023-12-20T12:33:30;100084.19;;;6.03;100.00
7052;BME280;3567;52.444;13.556;2023-12-20T12:35:55;100077.84;;;6.04;100.00
7052;BME280;3567;52.444;13.556;2023-12-20T12:38:21;100081.94;;;6.00;100.00
7052;BME280;3567;52.444;13.556;2023-12-20T12:40:47;100067.69;;;5.88;100.00
7052;BME280;3567;52.444;13.556;2023-12-20T12:43:12;100068.78;;;5.81;100.00
7052;BME280;3567;52.444;13.556;2023-12-20T12:45:38;100063.28;;;5.75;100.00
7052;BME280;3567;52.444;13.556;2023-12-20T12:48:05;100056.13;;;5.69;100.00
7052;BME280;3567;52.444;13.556;2023-12-20T12:50:31;100047.41;;;5.62;100.00
7052;BME280;3567;52.444;13.556;2023-12-20T12:52:56;100039.69;;;5.54;100.00
7052;BME280;3567;52.444;13.556;2023-12-20T12:55:21;100037.66;;;5.49;100.00
7052;BME280;3567;52.444;13.556;2023-12-20T12:57:47;100033.97;;;5.50;100.00
7052;BME280;3567;52.444;13.556;2023-12-20T13:00:12;100036.41;;;5.52;100.00